sensor_id;sensor_type;location;lat;lon;timestamp;P1;durP1;ratioP1;P2;durP2;ratioP2
53293;SDS011;39181;53.440;5.644;2023-05-10T00:01:58;9.27;;;5.93;;
53293;SDS011;39181;53.440;5.644;2023-05-10T00:04:23;11.32;;;6.78;;
53293;SDS011;39181;53.440;5.644;2023-05-10T00:06:52;13.82;;;7.28;;
53293;SDS011;39181;53.440;5.644;2023-05-10T00:09:18;18.00;;;7.40;;
53293;SDS011;39181;53.440;5.644;2023-05-10T00:11:44;15.77;;;7.72;;
53293;SDS011;39181;53.440;5.644;2023-05-10T00:14:09;16.75;;;7.82;;
53293;SDS011;39181;53.440;5.644;2023-05-10T00:16:35;21.17;;;8.60;;
53293;SDS011;39181;53.440;5.644;2023-05-10T00:19:01;14.80;;;8.43;;
53293;SDS011;39181;53.440;5.644;2023-05-10T00:21:27;13.95;;;8.40;;
53293;SDS011;39181;53.440;5.644;2023-05-10T00:23:53;18.45;;;9.65;;
53293;SDS011;39181;53.440;5.644;2023-05-10T00:26:19;19.08;;;8.55;;
53293;SDS011;39181;53.440;5.644;2023-05-10T00:28:45;19.10;;;8.82;;
53293;SDS011;39181;53.440;5.644;2023-05-10T00:31:10;19.63;;;7.85;;
53293;SDS011;39181;53.440;5.644;2023-05-10T00:33:36;17.05;;;7.82;;
53293;SDS011;39181;53.440;5.644;2023-05-10T00:36:02;18.08;;;7.97;;
53293;SDS011;39181;53.440;5.644;2023-05-10T00:38:27;6.68;;;4.60;;
53293;SDS011;39181;53.440;5.644;2023-05-10T00:40:53;4.70;;;4.10;;
53293;SDS011;39181;53.440;5.644;2023-05-10T00:43:19;4.97;;;4.40;;
53293;SDS011;39181;53.440;5.644;2023-05-10T00:45:44;7.53;;;5.47;;
53293;SDS011;39181;53.440;5.644;2023-05-10T00:48:10;7.45;;;6.00;;
53293;SDS011;39181;53.440;5.644;2023-05-10T00:50:36;13.10;;;7.40;;
53293;SDS011;39181;53.440;5.644;2023-05-10T00:53:02;9.68;;;8.07;;
53293;SDS011;39181;53.440;5.644;2023-05-10T00:55:28;8.23;;;6.50;;
53293;SDS011;39181;53.440;5.644;2023-05-10T00:57:54;6.35;;;5.75;;
53293;SDS011;39181;53.440;5.644;2023-05-10T01:00:20;6.65;;;4.82;;
53293;SDS011;39181;53.440;5.644;2023-05-10T01:02:46;5.20;;;4.18;;
53293;SDS011;39181;53.440;5.644;2023-05-10T01:05:12;4.78;;;3.30;;
53293;SDS011;39181;53.440;5.644;2023-05-10T01:07:38;2.60;;;2.05;;
53293;SDS011;39181;53.440;5.644;2023-05-10T01:10:05;2.22;;;2.03;;
53293;SDS011;39181;53.440;5.644;2023-05-10T01:12:31;1.35;;;1.20;;
53293;SDS011;39181;53.440;5.644;2023-05-10T01:14:59;2.03;;;1.00;;
53293;SDS011;39181;53.440;5.644;2023-05-10T01:17:26;0.90;;;0.85;;
53293;SDS011;39181;53.440;5.644;2023-05-10T01:19:52;0.70;;;0.70;;
53293;SDS011;39181;53.440;5.644;2023-05-10T01:22:33;0.70;;;0.70;;
53293;SDS011;39181;53.440;5.644;2023-05-10T01:34:03;2.95;;;1.40;;
53293;SDS011;39181;53.440;5.644;2023-05-10T01:39:17;6.38;;;1.40;;
53293;SDS011;39181;53.440;5.644;2023-05-10T01:42:08;7.07;;;2.30;;
53293;SDS011;39181;53.440;5.644;2023-05-10T01:50:02;7.82;;;2.15;;
53293;SDS011;39181;53.440;5.644;2023-05-10T01:52:36;12.45;;;2.53;;
53293;SDS011;39181;53.440;5.644;2023-05-10T01:55:06;14.88;;;2.08;;
53293;SDS011;39181;53.440;5.644;2023-05-10T01:57:37;11.23;;;2.35;;
53293;SDS011;39181;53.440;5.644;2023-05-10T02:00:04;11.70;;;2.58;;
53293;SDS011;39181;53.440;5.644;2023-05-10T02:02:33;18.27;;;2.85;;
53293;SDS011;39181;53.440;5.644;2023-05-10T02:05:03;14.00;;;3.20;;
53293;SDS011;39181;53.440;5.644;2023-05-10T02:07:31;8.30;;;3.35;;
53293;SDS011;39181;53.440;5.644;2023-05-10T02:10:00;19.85;;;3.30;;
53293;SDS011;39181;53.440;5.644;2023-05-10T02:12:42;10.45;;;4.45;;
53293;SDS011;39181;53.440;5.644;2023-05-10T02:15:08;25.30;;;5.00;;
53293;SDS011;39181;53.440;5.644;2023-05-10T02:17:37;17.08;;;5.78;;
53293;SDS011;39181;53.440;5.644;2023-05-10T02:20:05;14.98;;;6.22;;
53293;SDS011;39181;53.440;5.644;2023-05-10T02:22:33;25.77;;;6.50;;
53293;SDS011;39181;53.440;5.644;2023-05-10T02:25:00;28.50;;;6.53;;
53293;SDS011;39181;53.440;5.644;2023-05-10T02:27:27;23.45;;;8.30;;
53293;SDS011;39181;53.440;5.644;2023-05-10T02:29:54;27.45;;;8.35;;
53293;SDS011;39181;53.440;5.644;2023-05-10T02:32:20;17.05;;;8.80;;
53293;SDS011;39181;53.440;5.644;2023-05-10T02:34:47;25.55;;;8.55;;
53293;SDS011;39181;53.440;5.644;2023-05-10T02:37:16;22.08;;;9.55;;
53293;SDS011;39181;53.440;5.644;2023-05-10T02:39:45;14.13;;;7.60;;
53293;SDS011;39181;53.440;5.644;2023-05-10T02:42:20;20.20;;;8.93;;
53293;SDS011;39181;53.440;5.644;2023-05-10T02:44:52;18.17;;;7.82;;
53293;SDS011;39181;53.440;5.644;2023-05-10T02:47:21;20.15;;;7.50;;
53293;SDS011;39181;53.440;5.644;2023-05-10T02:49:47;26.02;;;9.27;;
53293;SDS011;39181;53.440;5.644;2023-05-10T02:52:14;33.25;;;7.40;;
53293;SDS011;39181;53.440;5.644;2023-05-10T02:54:45;13.15;;;6.95;;
53293;SDS011;39181;53.440;5.644;2023-05-10T02:57:15;12.70;;;6.65;;
53293;SDS011;39181;53.440;5.644;2023-05-10T02:59:43;9.40;;;5.78;;
53293;SDS011;39181;53.440;5.644;2023-05-10T03:02:10;10.95;;;5.93;;
53293;SDS011;39181;53.440;5.644;2023-05-10T03:04:36;10.55;;;5.18;;
53293;SDS011;39181;53.440;5.644;2023-05-10T03:07:02;11.48;;;4.47;;
53293;SDS011;39181;53.440;5.644;2023-05-10T03:09:27;13.38;;;3.38;;
53293;SDS011;39181;53.440;5.644;2023-05-10T03:12:07;17.05;;;3.50;;
53293;SDS011;39181;53.440;5.644;2023-05-10T03:15:09;21.95;;;4.47;;
53293;SDS011;39181;53.440;5.644;2023-05-10T03:23:30;7.15;;;4.90;;
53293;SDS011;39181;53.440;5.644;2023-05-10T03:25:51;6.90;;;4.13;;
53293;SDS011;39181;53.440;5.644;2023-05-10T03:28:17;7.88;;;4.43;;
53293;SDS011;39181;53.440;5.644;2023-05-10T03:30:44;4.38;;;2.97;;
53293;SDS011;39181;53.440;5.644;2023-05-10T03:33:11;4.75;;;4.35;;
53293;SDS011;39181;53.440;5.644;2023-05-10T03:35:37;7.57;;;4.13;;
53293;SDS011;39181;53.440;5.644;2023-05-10T03:38:03;10.05;;;3.40;;
53293;SDS011;39181;53.440;5.644;2023-05-10T03:40:29;4.32;;;2.75;;
53293;SDS011;39181;53.440;5.644;2023-05-10T03:42:56;2.30;;;2.10;;
53293;SDS011;39181;53.440;5.644;2023-05-10T03:45:25;3.20;;;2.28;;
53293;SDS011;39181;53.440;5.644;2023-05-10T03:47:51;4.82;;;2.75;;
53293;SDS011;39181;53.440;5.644;2023-05-10T03:50:16;4.25;;;3.03;;
53293;SDS011;39181;53.440;5.644;2023-05-10T03:52:43;2.00;;;1.50;;
53293;SDS011;39181;53.440;5.644;2023-05-10T03:55:09;2.55;;;1.05;;
53293;SDS011;39181;53.440;5.644;2023-05-10T03:57:35;1.20;;;0.90;;
53293;SDS011;39181;53.440;5.644;2023-05-10T04:00:01;2.03;;;1.60;;
53293;SDS011;39181;53.440;5.644;2023-05-10T04:02:27;2.67;;;2.30;;
53293;SDS011;39181;53.440;5.644;2023-05-10T04:04:54;11.38;;;3.40;;
53293;SDS011;39181;53.440;5.644;2023-05-10T04:07:20;10.27;;;4.25;;
53293;SDS011;39181;53.440;5.644;2023-05-10T04:09:46;12.30;;;4.55;;
53293;SDS011;39181;53.440;5.644;2023-05-10T04:12:12;16.13;;;4.50;;
53293;SDS011;39181;53.440;5.644;2023-05-10T04:14:37;11.82;;;3.50;;
53293;SDS011;39181;53.440;5.644;2023-05-10T04:17:03;9.43;;;3.88;;
53293;SDS011;39181;53.440;5.644;2023-05-10T04:19:32;5.03;;;2.20;;
53293;SDS011;39181;53.440;5.644;2023-05-10T04:21:58;6.78;;;3.80;;
53293;SDS011;39181;53.440;5.644;2023-05-10T04:24:24;4.63;;;3.28;;
53293;SDS011;39181;53.440;5.644;2023-05-10T04:26:50;6.50;;;3.03;;
53293;SDS011;39181;53.440;5.644;2023-05-10T04:29:16;3.38;;;1.98;;
53293;SDS011;39181;53.440;5.644;2023-05-10T04:31:41;2.67;;;1.50;;
53293;SDS011;39181;53.440;5.644;2023-05-10T04:34:07;3.53;;;2.13;;
53293;SDS011;39181;53.440;5.644;2023-05-10T04:36:32;3.08;;;2.10;;
53293;SDS011;39181;53.440;5.644;2023-05-10T04:39:00;2.83;;;1.52;;
53293;SDS011;39181;53.440;5.644;2023-05-10T04:41:27;4.30;;;2.10;;
53293;SDS011;39181;53.440;5.644;2023-05-10T04:43:53;4.32;;;1.75;;
53293;SDS011;39181;53.440;5.644;2023-05-10T04:46:19;4.53;;;2.08;;
53293;SDS011;39181;53.440;5.644;2023-05-10T04:48:44;3.83;;;2.40;;
53293;SDS011;39181;53.440;5.644;2023-05-10T04:51:10;5.75;;;3.05;;
53293;SDS011;39181;53.440;5.644;2023-05-10T04:53:36;3.60;;;3.30;;
53293;SDS011;39181;53.440;5.644;2023-05-10T04:56:01;4.13;;;2.90;;
53293;SDS011;39181;53.440;5.644;2023-05-10T04:58:27;9.05;;;2.70;;
53293;SDS011;39181;53.440;5.644;2023-05-10T05:00:53;4.18;;;1.55;;
53293;SDS011;39181;53.440;5.644;2023-05-10T05:03:18;7.03;;;2.88;;
53293;SDS011;39181;53.440;5.644;2023-05-10T05:05:44;5.40;;;1.83;;
53293;SDS011;39181;53.440;5.644;2023-05-10T05:08:09;3.83;;;1.30;;
53293;SDS011;39181;53.440;5.644;2023-05-10T05:10:35;5.38;;;1.65;;
53293;SDS011;39181;53.440;5.644;2023-05-10T05:13:00;8.82;;;1.70;;
53293;SDS011;39181;53.440;5.644;2023-05-10T05:15:26;5.40;;;2.10;;
53293;SDS011;39181;53.440;5.644;2023-05-10T05:17:52;5.40;;;1.65;;
53293;SDS011;39181;53.440;5.644;2023-05-10T05:20:18;4.07;;;1.50;;
53293;SDS011;39181;53.440;5.644;2023-05-10T05:22:44;7.90;;;1.38;;
53293;SDS011;39181;53.440;5.644;2023-05-10T05:25:09;5.70;;;2.03;;
53293;SDS011;39181;53.440;5.644;2023-05-10T05:27:36;3.05;;;1.65;;
53293;SDS011;39181;53.440;5.644;2023-05-10T05:30:02;4.57;;;1.80;;
53293;SDS011;39181;53.440;5.644;2023-05-10T05:32:30;7.85;;;2.40;;
53293;SDS011;39181;53.440;5.644;2023-05-10T05:34:55;3.40;;;2.40;;
53293;SDS011;39181;53.440;5.644;2023-05-10T05:37:21;3.15;;;2.72;;
53293;SDS011;39181;53.440;5.644;2023-05-10T05:39:47;3.50;;;2.42;;
53293;SDS011;39181;53.440;5.644;2023-05-10T05:42:13;6.00;;;2.60;;
53293;SDS011;39181;53.440;5.644;2023-05-10T05:44:41;5.05;;;2.58;;
53293;SDS011;39181;53.440;5.644;2023-05-10T05:47:07;2.20;;;1.90;;
53293;SDS011;39181;53.440;5.644;2023-05-10T05:49:32;2.28;;;2.10;;
53293;SDS011;39181;53.440;5.644;2023-05-10T05:51:58;2.80;;;2.60;;
53293;SDS011;39181;53.440;5.644;2023-05-10T05:54:25;4.88;;;2.47;;
53293;SDS011;39181;53.440;5.644;2023-05-10T05:56:53;3.80;;;2.00;;
53293;SDS011;39181;53.440;5.644;2023-05-10T05:59:20;4.15;;;2.83;;
53293;SDS011;39181;53.440;5.644;2023-05-10T06:01:46;3.10;;;2.75;;
53293;SDS011;39181;53.440;5.644;2023-05-10T06:04:11;3.70;;;2.85;;
53293;SDS011;39181;53.440;5.644;2023-05-10T06:06:37;5.03;;;2.92;;
53293;SDS011;39181;53.440;5.644;2023-05-10T06:09:03;3.03;;;2.70;;
53293;SDS011;39181;53.440;5.644;2023-05-10T06:11:28;5.18;;;2.70;;
53293;SDS011;39181;53.440;5.644;2023-05-10T06:13:55;5.03;;;3.20;;
53293;SDS011;39181;53.440;5.644;2023-05-10T06:16:21;3.53;;;2.47;;
53293;SDS011;39181;53.440;5.644;2023-05-10T06:18:46;6.80;;;3.60;;
53293;SDS011;39181;53.440;5.644;2023-05-10T06:21:12;6.97;;;3.22;;
53293;SDS011;39181;53.440;5.644;2023-05-10T06:23:37;3.97;;;1.85;;
53293;SDS011;39181;53.440;5.644;2023-05-10T06:26:03;2.95;;;2.28;;
53293;SDS011;39181;53.440;5.644;2023-05-10T06:28:29;2.60;;;2.28;;
53293;SDS011;39181;53.440;5.644;2023-05-10T06:30:56;5.82;;;2.10;;
53293;SDS011;39181;53.440;5.644;2023-05-10T06:33:21;5.60;;;1.98;;
53293;SDS011;39181;53.440;5.644;2023-05-10T06:35:47;4.47;;;1.98;;
53293;SDS011;39181;53.440;5.644;2023-05-10T06:38:12;4.10;;;2.08;;
53293;SDS011;39181;53.440;5.644;2023-05-10T06:40:40;7.70;;;3.55;;
53293;SDS011;39181;53.440;5.644;2023-05-10T06:43:07;7.63;;;3.38;;
53293;SDS011;39181;53.440;5.644;2023-05-10T06:45:32;9.52;;;4.15;;
53293;SDS011;39181;53.440;5.644;2023-05-10T06:47:58;7.18;;;3.50;;
53293;SDS011;39181;53.440;5.644;2023-05-10T06:50:23;6.15;;;3.50;;
53293;SDS011;39181;53.440;5.644;2023-05-10T06:52:49;5.30;;;3.55;;
53293;SDS011;39181;53.440;5.644;2023-05-10T06:55:14;3.35;;;1.92;;
53293;SDS011;39181;53.440;5.644;2023-05-10T06:57:40;2.42;;;1.60;;
53293;SDS011;39181;53.440;5.644;2023-05-10T07:00:06;3.17;;;1.60;;
53293;SDS011;39181;53.440;5.644;2023-05-10T07:02:32;2.13;;;1.50;;
53293;SDS011;39181;53.440;5.644;2023-05-10T07:04:58;2.05;;;1.83;;
53293;SDS011;39181;53.440;5.644;2023-05-10T07:07:23;2.28;;;1.63;;
53293;SDS011;39181;53.440;5.644;2023-05-10T07:09:49;2.95;;;1.90;;
53293;SDS011;39181;53.440;5.644;2023-05-10T07:12:15;3.13;;;1.58;;
53293;SDS011;39181;53.440;5.644;2023-05-10T07:14:40;2.70;;;1.77;;
53293;SDS011;39181;53.440;5.644;2023-05-10T07:17:06;3.63;;;1.73;;
53293;SDS011;39181;53.440;5.644;2023-05-10T07:19:32;2.80;;;1.85;;
53293;SDS011;39181;53.440;5.644;2023-05-10T07:21:58;3.10;;;2.47;;
53293;SDS011;39181;53.440;5.644;2023-05-10T07:24:23;2.60;;;1.92;;
53293;SDS011;39181;53.440;5.644;2023-05-10T07:26:49;4.00;;;1.80;;
53293;SDS011;39181;53.440;5.644;2023-05-10T07:29:15;4.70;;;1.52;;
53293;SDS011;39181;53.440;5.644;2023-05-10T07:31:41;1.77;;;1.08;;
53293;SDS011;39181;53.440;5.644;2023-05-10T07:34:09;2.58;;;1.50;;
53293;SDS011;39181;53.440;5.644;2023-05-10T07:36:35;1.48;;;1.38;;
53293;SDS011;39181;53.440;5.644;2023-05-10T07:39:00;2.58;;;1.70;;
53293;SDS011;39181;53.440;5.644;2023-05-10T07:41:26;2.90;;;1.80;;
53293;SDS011;39181;53.440;5.644;2023-05-10T07:43:52;2.67;;;1.30;;
53293;SDS011;39181;53.440;5.644;2023-05-10T07:46:17;1.60;;;1.33;;
53293;SDS011;39181;53.440;5.644;2023-05-10T07:48:44;1.75;;;1.30;;
53293;SDS011;39181;53.440;5.644;2023-05-10T07:51:10;2.08;;;1.45;;
53293;SDS011;39181;53.440;5.644;2023-05-10T07:53:36;2.90;;;1.40;;
53293;SDS011;39181;53.440;5.644;2023-05-10T07:56:19;5.88;;;1.85;;
53293;SDS011;39181;53.440;5.644;2023-05-10T07:58:46;4.88;;;2.20;;
53293;SDS011;39181;53.440;5.644;2023-05-10T08:01:12;3.55;;;2.05;;
53293;SDS011;39181;53.440;5.644;2023-05-10T08:03:37;4.07;;;2.00;;
53293;SDS011;39181;53.440;5.644;2023-05-10T08:06:03;4.15;;;2.13;;
53293;SDS011;39181;53.440;5.644;2023-05-10T08:08:29;4.93;;;2.28;;
53293;SDS011;39181;53.440;5.644;2023-05-10T08:10:54;3.53;;;2.85;;
53293;SDS011;39181;53.440;5.644;2023-05-10T08:13:20;3.10;;;2.08;;
53293;SDS011;39181;53.440;5.644;2023-05-10T08:15:46;5.57;;;2.55;;
53293;SDS011;39181;53.440;5.644;2023-05-10T08:18:12;4.13;;;3.45;;
53293;SDS011;39181;53.440;5.644;2023-05-10T08:20:37;5.15;;;3.25;;
53293;SDS011;39181;53.440;5.644;2023-05-10T08:23:03;6.07;;;4.03;;
53293;SDS011;39181;53.440;5.644;2023-05-10T08:25:28;5.22;;;3.00;;
53293;SDS011;39181;53.440;5.644;2023-05-10T08:27:54;8.73;;;4.30;;
53293;SDS011;39181;53.440;5.644;2023-05-10T08:30:20;5.82;;;3.22;;
53293;SDS011;39181;53.440;5.644;2023-05-10T08:32:45;6.15;;;3.47;;
53293;SDS011;39181;53.440;5.644;2023-05-10T08:35:11;6.68;;;3.42;;
53293;SDS011;39181;53.440;5.644;2023-05-10T08:37:36;8.85;;;4.38;;
53293;SDS011;39181;53.440;5.644;2023-05-10T08:40:02;6.43;;;3.72;;
53293;SDS011;39181;53.440;5.644;2023-05-10T08:42:28;6.18;;;3.60;;
53293;SDS011;39181;53.440;5.644;2023-05-10T08:44:56;5.60;;;3.50;;
53293;SDS011;39181;53.440;5.644;2023-05-10T08:47:23;7.10;;;4.55;;
53293;SDS011;39181;53.440;5.644;2023-05-10T08:49:50;6.68;;;3.28;;
53293;SDS011;39181;53.440;5.644;2023-05-10T08:52:17;9.23;;;4.50;;
53293;SDS011;39181;53.440;5.644;2023-05-10T08:54:43;8.55;;;4.53;;
53293;SDS011;39181;53.440;5.644;2023-05-10T08:57:09;8.50;;;5.15;;
53293;SDS011;39181;53.440;5.644;2023-05-10T08:59:35;12.32;;;4.82;;
53293;SDS011;39181;53.440;5.644;2023-05-10T09:02:04;12.65;;;5.70;;
53293;SDS011;39181;53.440;5.644;2023-05-10T09:04:30;10.27;;;4.93;;
53293;SDS011;39181;53.440;5.644;2023-05-10T09:06:56;10.18;;;7.13;;
53293;SDS011;39181;53.440;5.644;2023-05-10T09:09:22;11.82;;;7.90;;
53293;SDS011;39181;53.440;5.644;2023-05-10T09:11:50;9.90;;;6.53;;
53293;SDS011;39181;53.440;5.644;2023-05-10T09:14:16;9.60;;;5.80;;
53293;SDS011;39181;53.440;5.644;2023-05-10T09:16:43;7.78;;;6.15;;
53293;SDS011;39181;53.440;5.644;2023-05-10T09:19:09;8.63;;;6.10;;
53293;SDS011;39181;53.440;5.644;2023-05-10T09:21:35;10.93;;;7.72;;
53293;SDS011;39181;53.440;5.644;2023-05-10T09:24:04;9.32;;;7.00;;
53293;SDS011;39181;53.440;5.644;2023-05-10T09:26:33;8.35;;;7.22;;
53293;SDS011;39181;53.440;5.644;2023-05-10T09:29:00;7.80;;;6.93;;
53293;SDS011;39181;53.440;5.644;2023-05-10T09:31:49;6.93;;;5.32;;
53293;SDS011;39181;53.440;5.644;2023-05-10T09:34:30;6.88;;;5.20;;
53293;SDS011;39181;53.440;5.644;2023-05-10T09:36:57;10.13;;;6.78;;
53293;SDS011;39181;53.440;5.644;2023-05-10T09:42:06;9.70;;;5.22;;
53293;SDS011;39181;53.440;5.644;2023-05-10T09:44:34;10.60;;;6.30;;
53293;SDS011;39181;53.440;5.644;2023-05-10T09:47:01;12.40;;;7.70;;
53293;SDS011;39181;53.440;5.644;2023-05-10T09:49:27;12.82;;;8.07;;
53293;SDS011;39181;53.440;5.644;2023-05-10T09:52:00;11.30;;;9.43;;
53293;SDS011;39181;53.440;5.644;2023-05-10T09:54:27;13.77;;;8.20;;
53293;SDS011;39181;53.440;5.644;2023-05-10T09:56:53;13.57;;;9.40;;
53293;SDS011;39181;53.440;5.644;2023-05-10T09:59:18;9.90;;;7.55;;
53293;SDS011;39181;53.440;5.644;2023-05-10T10:01:49;8.60;;;6.57;;
53293;SDS011;39181;53.440;5.644;2023-05-10T10:04:16;7.77;;;5.57;;
53293;SDS011;39181;53.440;5.644;2023-05-10T10:06:42;8.20;;;4.45;;
53293;SDS011;39181;53.440;5.644;2023-05-10T10:09:08;4.93;;;4.38;;
53293;SDS011;39181;53.440;5.644;2023-05-10T10:11:35;5.20;;;4.32;;
53293;SDS011;39181;53.440;5.644;2023-05-10T10:14:01;6.03;;;4.97;;
53293;SDS011;39181;53.440;5.644;2023-05-10T10:16:30;5.72;;;4.65;;
53293;SDS011;39181;53.440;5.644;2023-05-10T10:18:57;7.05;;;5.20;;
53293;SDS011;39181;53.440;5.644;2023-05-10T10:21:23;5.32;;;4.82;;
53293;SDS011;39181;53.440;5.644;2023-05-10T10:23:49;6.07;;;5.13;;
53293;SDS011;39181;53.440;5.644;2023-05-10T10:26:16;7.68;;;6.15;;
53293;SDS011;39181;53.440;5.644;2023-05-10T10:31:51;10.48;;;8.02;;
53293;SDS011;39181;53.440;5.644;2023-05-10T10:34:25;9.52;;;7.25;;
53293;SDS011;39181;53.440;5.644;2023-05-10T10:36:56;7.07;;;5.82;;
53293;SDS011;39181;53.440;5.644;2023-05-10T10:39:23;8.05;;;5.40;;
53293;SDS011;39181;53.440;5.644;2023-05-10T10:41:53;7.82;;;6.00;;
53293;SDS011;39181;53.440;5.644;2023-05-10T10:55:07;9.02;;;6.85;;
53293;SDS011;39181;53.440;5.644;2023-05-10T11:02:45;7.97;;;6.55;;
53293;SDS011;39181;53.440;5.644;2023-05-10T11:05:39;11.00;;;7.40;;
53293;SDS011;39181;53.440;5.644;2023-05-10T11:08:10;10.65;;;7.28;;
53293;SDS011;39181;53.440;5.644;2023-05-10T11:11:02;8.00;;;7.20;;
53293;SDS011;39181;53.440;5.644;2023-05-10T11:13:39;8.88;;;7.40;;
53293;SDS011;39181;53.440;5.644;2023-05-10T11:16:12;7.70;;;6.45;;
53293;SDS011;39181;53.440;5.644;2023-05-10T11:18:39;8.57;;;6.80;;
53293;SDS011;39181;53.440;5.644;2023-05-10T11:21:05;9.63;;;8.45;;
53293;SDS011;39181;53.440;5.644;2023-05-10T11:23:48;14.23;;;9.90;;
53293;SDS011;39181;53.440;5.644;2023-05-10T11:26:15;10.35;;;7.80;;
53293;SDS011;39181;53.440;5.644;2023-05-10T11:28:44;9.40;;;8.40;;
53293;SDS011;39181;53.440;5.644;2023-05-10T11:31:14;13.93;;;10.50;;
53293;SDS011;39181;53.440;5.644;2023-05-10T11:33:50;11.52;;;9.05;;
53293;SDS011;39181;53.440;5.644;2023-05-10T11:36:19;13.52;;;9.25;;
53293;SDS011;39181;53.440;5.644;2023-05-10T11:38:46;13.73;;;10.23;;
53293;SDS011;39181;53.440;5.644;2023-05-10T11:41:13;10.80;;;8.32;;
53293;SDS011;39181;53.440;5.644;2023-05-10T11:43:41;10.75;;;8.43;;
53293;SDS011;39181;53.440;5.644;2023-05-10T11:46:08;5.25;;;4.75;;
53293;SDS011;39181;53.440;5.644;2023-05-10T11:48:36;6.05;;;5.45;;
53293;SDS011;39181;53.440;5.644;2023-05-10T11:51:03;5.65;;;4.80;;
53293;SDS011;39181;53.440;5.644;2023-05-10T11:53:30;4.20;;;3.80;;
53293;SDS011;39181;53.440;5.644;2023-05-10T11:56:06;3.45;;;3.15;;
53293;SDS011;39181;53.440;5.644;2023-05-10T11:58:33;5.60;;;3.97;;
53293;SDS011;39181;53.440;5.644;2023-05-10T12:00:59;3.88;;;3.58;;
53293;SDS011;39181;53.440;5.644;2023-05-10T12:03:26;3.05;;;2.65;;
53293;SDS011;39181;53.440;5.644;2023-05-10T12:05:53;7.80;;;3.72;;
53293;SDS011;39181;53.440;5.644;2023-05-10T12:08:20;3.67;;;3.28;;
53293;SDS011;39181;53.440;5.644;2023-05-10T12:10:48;3.55;;;2.92;;
53293;SDS011;39181;53.440;5.644;2023-05-10T12:13:14;3.58;;;3.28;;
53293;SDS011;39181;53.440;5.644;2023-05-10T12:15:41;5.00;;;4.57;;
53293;SDS011;39181;53.440;5.644;2023-05-10T12:18:11;5.80;;;4.65;;
53293;SDS011;39181;53.440;5.644;2023-05-10T12:20:37;6.95;;;4.20;;
53293;SDS011;39181;53.440;5.644;2023-05-10T12:23:03;5.10;;;4.57;;
53293;SDS011;39181;53.440;5.644;2023-05-10T12:25:31;6.72;;;4.03;;
53293;SDS011;39181;53.440;5.644;2023-05-10T12:28:03;4.90;;;4.20;;
53293;SDS011;39181;53.440;5.644;2023-05-10T12:30:30;6.57;;;5.25;;
53293;SDS011;39181;53.440;5.644;2023-05-10T12:35:45;8.32;;;6.45;;
53293;SDS011;39181;53.440;5.644;2023-05-10T12:38:25;7.95;;;6.57;;
53293;SDS011;39181;53.440;5.644;2023-05-10T12:40:59;7.20;;;5.90;;
53293;SDS011;39181;53.440;5.644;2023-05-10T12:43:25;6.80;;;5.25;;
53293;SDS011;39181;53.440;5.644;2023-05-10T12:45:51;7.10;;;5.13;;
53293;SDS011;39181;53.440;5.644;2023-05-10T12:48:17;5.38;;;4.88;;
53293;SDS011;39181;53.440;5.644;2023-05-10T12:50:43;6.18;;;4.72;;
53293;SDS011;39181;53.440;5.644;2023-05-10T12:53:08;5.60;;;5.10;;
53293;SDS011;39181;53.440;5.644;2023-05-10T12:55:34;7.00;;;4.90;;
53293;SDS011;39181;53.440;5.644;2023-05-10T12:57:59;8.32;;;5.15;;
53293;SDS011;39181;53.440;5.644;2023-05-10T13:00:25;4.43;;;3.55;;
53293;SDS011;39181;53.440;5.644;2023-05-10T13:02:51;4.55;;;3.00;;
53293;SDS011;39181;53.440;5.644;2023-05-10T13:05:17;3.70;;;2.42;;
53293;SDS011;39181;53.440;5.644;2023-05-10T13:07:42;2.47;;;2.28;;
53293;SDS011;39181;53.440;5.644;2023-05-10T13:10:09;2.85;;;2.33;;
53293;SDS011;39181;53.440;5.644;2023-05-10T13:12:35;3.35;;;2.22;;
53293;SDS011;39181;53.440;5.644;2023-05-10T13:15:01;2.17;;;1.90;;
53293;SDS011;39181;53.440;5.644;2023-05-10T13:17:27;1.90;;;1.70;;
53293;SDS011;39181;53.440;5.644;2023-05-10T13:19:54;2.00;;;1.80;;
53293;SDS011;39181;53.440;5.644;2023-05-10T13:22:20;4.40;;;1.40;;
53293;SDS011;39181;53.440;5.644;2023-05-10T13:24:45;1.75;;;1.60;;
53293;SDS011;39181;53.440;5.644;2023-05-10T13:27:11;3.03;;;2.72;;
53293;SDS011;39181;53.440;5.644;2023-05-10T13:29:36;3.58;;;2.30;;
53293;SDS011;39181;53.440;5.644;2023-05-10T13:32:02;1.50;;;1.40;;
53293;SDS011;39181;53.440;5.644;2023-05-10T13:34:27;3.60;;;1.92;;
53293;SDS011;39181;53.440;5.644;2023-05-10T13:36:53;3.20;;;2.00;;
53293;SDS011;39181;53.440;5.644;2023-05-10T13:39:20;2.35;;;1.65;;
53293;SDS011;39181;53.440;5.644;2023-05-10T13:41:46;1.38;;;1.27;;
53293;SDS011;39181;53.440;5.644;2023-05-10T13:44:12;4.20;;;1.55;;
53293;SDS011;39181;53.440;5.644;2023-05-10T13:46:39;2.05;;;1.40;;
53293;SDS011;39181;53.440;5.644;2023-05-10T13:49:05;1.75;;;1.10;;
53293;SDS011;39181;53.440;5.644;2023-05-10T13:51:31;1.65;;;1.20;;
53293;SDS011;39181;53.440;5.644;2023-05-10T13:53:58;5.18;;;1.27;;
53293;SDS011;39181;53.440;5.644;2023-05-10T13:56:23;1.83;;;1.60;;
53293;SDS011;39181;53.440;5.644;2023-05-10T13:58:49;2.75;;;1.52;;
53293;SDS011;39181;53.440;5.644;2023-05-10T14:01:14;2.60;;;1.42;;
53293;SDS011;39181;53.440;5.644;2023-05-10T14:03:40;5.13;;;2.10;;
53293;SDS011;39181;53.440;5.644;2023-05-10T14:06:06;5.22;;;3.15;;
53293;SDS011;39181;53.440;5.644;2023-05-10T14:08:32;4.03;;;2.78;;
53293;SDS011;39181;53.440;5.644;2023-05-10T14:10:58;9.00;;;2.97;;
53293;SDS011;39181;53.440;5.644;2023-05-10T14:13:24;9.45;;;3.38;;
53293;SDS011;39181;53.440;5.644;2023-05-10T14:15:50;4.78;;;4.10;;
53293;SDS011;39181;53.440;5.644;2023-05-10T14:18:15;7.47;;;3.17;;
53293;SDS011;39181;53.440;5.644;2023-05-10T14:20:41;11.00;;;2.78;;
53293;SDS011;39181;53.440;5.644;2023-05-10T14:23:06;5.22;;;3.30;;
53293;SDS011;39181;53.440;5.644;2023-05-10T14:25:32;6.68;;;3.72;;
53293;SDS011;39181;53.440;5.644;2023-05-10T14:27:58;18.05;;;5.00;;
53293;SDS011;39181;53.440;5.644;2023-05-10T14:30:23;5.82;;;3.75;;
53293;SDS011;39181;53.440;5.644;2023-05-10T14:32:49;7.22;;;3.13;;
53293;SDS011;39181;53.440;5.644;2023-05-10T14:35:15;8.00;;;3.45;;
53293;SDS011;39181;53.440;5.644;2023-05-10T14:37:40;6.53;;;4.20;;
53293;SDS011;39181;53.440;5.644;2023-05-10T14:40:06;3.28;;;2.78;;
53293;SDS011;39181;53.440;5.644;2023-05-10T14:42:32;10.45;;;4.55;;
53293;SDS011;39181;53.440;5.644;2023-05-10T14:44:57;6.28;;;3.53;;
53293;SDS011;39181;53.440;5.644;2023-05-10T14:47:23;7.78;;;4.28;;
53293;SDS011;39181;53.440;5.644;2023-05-10T14:49:48;7.20;;;3.47;;
53293;SDS011;39181;53.440;5.644;2023-05-10T14:52:14;4.47;;;3.20;;
53293;SDS011;39181;53.440;5.644;2023-05-10T14:54:40;2.60;;;2.40;;
53293;SDS011;39181;53.440;5.644;2023-05-10T14:57:06;2.00;;;1.90;;
53293;SDS011;39181;53.440;5.644;2023-05-10T14:59:31;3.92;;;2.47;;
53293;SDS011;39181;53.440;5.644;2023-05-10T15:01:57;2.53;;;2.33;;
53293;SDS011;39181;53.440;5.644;2023-05-10T15:04:23;3.33;;;2.72;;
53293;SDS011;39181;53.440;5.644;2023-05-10T15:06:49;2.50;;;1.67;;
53293;SDS011;39181;53.440;5.644;2023-05-10T15:09:14;1.98;;;1.73;;
53293;SDS011;39181;53.440;5.644;2023-05-10T15:11:41;4.90;;;2.58;;
53293;SDS011;39181;53.440;5.644;2023-05-10T15:14:07;3.70;;;3.05;;
53293;SDS011;39181;53.440;5.644;2023-05-10T15:16:32;3.65;;;1.88;;
53293;SDS011;39181;53.440;5.644;2023-05-10T15:18:58;3.83;;;2.80;;
53293;SDS011;39181;53.440;5.644;2023-05-10T15:21:23;2.05;;;1.85;;
53293;SDS011;39181;53.440;5.644;2023-05-10T15:23:49;2.58;;;2.17;;
53293;SDS011;39181;53.440;5.644;2023-05-10T15:26:15;3.15;;;2.28;;
53293;SDS011;39181;53.440;5.644;2023-05-10T15:28:40;6.18;;;2.33;;
53293;SDS011;39181;53.440;5.644;2023-05-10T15:31:06;4.50;;;2.45;;
53293;SDS011;39181;53.440;5.644;2023-05-10T15:33:31;3.85;;;3.13;;